createdAt,value
2019-05-20T00:02:56.114Z,97793.06
2019-05-20T00:12:56.750Z,97795.28
2019-05-20T00:22:57.778Z,97798.89
2019-05-20T00:32:58.630Z,97792.19
2019-05-20T00:42:59.536Z,97795.56
2019-05-20T00:53:00.286Z,97786.02
2019-05-20T01:03:01.178Z,97789.30
2019-05-20T01:13:03.147Z,97795.88
2019-05-20T01:23:06.422Z,97794.38
2019-05-20T01:33:13.735Z,97799.69
2019-05-20T01:43:10.058Z,97797.90
2019-05-20T01:53:10.923Z,97791.94
2019-05-20T02:03:12.095Z,97775.97
2019-05-20T02:13:12.831Z,97790.30
2019-05-20T02:23:13.604Z,97765.34
2019-05-20T02:33:14.346Z,97763.28
2019-05-20T02:43:15.807Z,97757.09
2019-05-20T02:53:17.700Z,97763.73
2019-05-20T03:03:18.676Z,97774.82
2019-05-20T03:13:19.657Z,97782.55
2019-05-20T03:23:20.704Z,97785.50
2019-05-20T03:33:21.551Z,97791.08
2019-05-20T03:43:23.502Z,97787.73
2019-05-20T03:53:24.362Z,97805.70
2019-05-20T04:03:25.705Z,97815.56
2019-05-20T04:13:27.099Z,97811.55
2019-05-20T04:23:30.024Z,97813.58
2019-05-20T04:33:31.171Z,97817.41
2019-05-20T04:43:31.934Z,97822.95
2019-05-20T04:53:32.734Z,97813.52
2019-05-20T05:03:33.600Z,97810.70
2019-05-20T05:13:35.022Z,97820.33
2019-05-20T05:23:36.623Z,97838.78
2019-05-20T05:33:37.467Z,97832.51
2019-05-20T05:43:38.706Z,97852.86
2019-05-20T05:53:45.596Z,97852.13
2019-05-20T06:03:48.515Z,97851.99
2019-05-20T06:13:49.620Z,97854.55
2019-05-20T06:23:50.536Z,97847.97
2019-05-20T06:33:51.406Z,97871.16
2019-05-20T06:43:52.318Z,97871.44
2019-05-20T06:53:53.417Z,97862.58
2019-05-20T07:03:54.432Z,97872.33
2019-05-20T07:13:55.514Z,97884.06
2019-05-20T07:23:56.766Z,97892.73
2019-05-20T07:33:57.877Z,97889.83
2019-05-20T07:43:58.567Z,97893.40
2019-05-20T07:53:59.893Z,97894.02
2019-05-20T08:04:00.559Z,97892.56
2019-05-20T08:14:01.707Z,97896.54
2019-05-20T08:24:02.804Z,97899.16
2019-05-20T08:34:03.641Z,97906.27
2019-05-20T08:44:04.921Z,97903.33
2019-05-20T08:54:05.739Z,97907.83
2019-05-20T09:04:06.490Z,97913.00
2019-05-20T09:14:07.551Z,97928.22
2019-05-20T09:24:08.334Z,97926.15
2019-05-20T09:34:09.268Z,97925.27
2019-05-20T09:44:10.442Z,97923.20
2019-05-20T09:54:11.315Z,97922.69
2019-05-20T10:04:12.404Z,97935.78
2019-05-20T10:14:13.289Z,97939.15
2019-05-20T10:24:14.061Z,97929.33
2019-05-20T10:34:15.118Z,97934.05
2019-05-20T10:44:16.048Z,97949.01
2019-05-20T10:54:17.077Z,97956.14
2019-05-20T11:04:18.643Z,97960.42
2019-05-20T11:14:20.078Z,97953.31
2019-05-20T11:24:21.624Z,97963.40
2019-05-20T11:34:22.878Z,97970.53
2019-05-20T11:44:24.145Z,97961.86
2019-05-20T11:54:25.582Z,97962.86
2019-05-20T12:04:26.278Z,97962.41
2019-05-20T12:14:27.520Z,97971.31
2019-05-20T12:24:28.545Z,97972.80
2019-05-20T12:34:29.747Z,97975.03
2019-05-20T12:44:31.771Z,97981.42
2019-05-20T12:54:32.854Z,97983.16
2019-05-20T13:04:33.734Z,97983.09
2019-05-20T13:14:34.414Z,97987.63
2019-05-20T13:24:36.145Z,97989.27
2019-05-20T13:34:36.872Z,97973.66
2019-05-20T13:44:38.601Z,97967.19
2019-05-20T13:54:39.586Z,97961.94
2019-05-20T14:04:40.782Z,97968.63
2019-05-20T14:14:41.528Z,97963.94
2019-05-20T14:24:42.376Z,97974.09
2019-05-20T14:34:43.276Z,97981.88
2019-05-20T14:44:44.349Z,97984.51
2019-05-20T14:54:45.470Z,97990.56
2019-05-20T15:04:47.364Z,98002.70
2019-05-20T15:14:48.072Z,97999.72
2019-05-20T15:24:49.061Z,98009.18
2019-05-20T15:34:49.917Z,98009.80
2019-05-20T15:44:50.790Z,98000.56
2019-05-20T15:54:52.062Z,98001.73
2019-05-20T16:04:54.829Z,97990.39
2019-05-20T16:14:56.632Z,97997.28
2019-05-20T16:24:57.545Z,97994.34
2019-05-20T16:34:58.603Z,97994.38
2019-05-20T16:44:59.573Z,97994.55
2019-05-20T16:55:00.553Z,97991.89
2019-05-20T17:05:01.219Z,98005.92
2019-05-20T17:15:02.418Z,98001.61
2019-05-20T17:25:04.964Z,98005.44
2019-05-20T17:35:05.941Z,98022.04
2019-05-20T17:45:07.295Z,98022.13
2019-05-20T17:55:09.849Z,98019.81
2019-05-20T18:05:10.646Z,98017.19
2019-05-20T18:15:11.902Z,98006.41
2019-05-20T18:25:12.702Z,98012.14
2019-05-20T18:35:13.550Z,98015.97
2019-05-20T18:45:15.350Z,98019.78
2019-05-20T18:55:16.158Z,98036.29
2019-05-20T19:05:17.090Z,98027.72
2019-05-20T19:15:17.902Z,98033.06
2019-05-20T19:25:18.692Z,98024.20
2019-05-20T19:35:19.397Z,98033.31
2019-05-20T19:45:21.292Z,98032.12
2019-05-20T19:55:23.012Z,98059.92
2019-05-20T20:05:23.749Z,98068.67
2019-05-20T20:15:24.517Z,98075.29
2019-05-20T20:25:25.196Z,98085.47
2019-05-20T20:35:37.752Z,98077.31
2019-05-20T20:45:28.513Z,98074.13
2019-05-20T20:55:29.309Z,98072.23
2019-05-20T21:05:29.974Z,98078.59
2019-05-20T21:15:30.858Z,98063.25
2019-05-20T21:25:31.695Z,98072.48
2019-05-20T21:35:32.417Z,98075.48
2019-05-20T21:45:33.404Z,98077.33
2019-05-20T21:55:35.252Z,98078.84
2019-05-20T22:05:36.236Z,98076.19
2019-05-20T22:15:37.013Z,98077.89
2019-05-20T22:25:40.962Z,98055.12
2019-05-20T22:35:41.833Z,98064.44
2019-05-20T22:45:43.183Z,98066.54
2019-05-20T22:55:44.184Z,98047.70
2019-05-20T23:05:44.892Z,98056.23
2019-05-20T23:15:45.732Z,98056.48
2019-05-20T23:25:46.585Z,98066.84
2019-05-20T23:35:47.278Z,98063.70
2019-05-20T23:45:47.986Z,98067.09
2019-05-20T23:55:48.673Z,98066.11
